createdAt,value
2023-01-15T00:02:16.857Z,100.00
2023-01-15T00:04:44.249Z,100.00
2023-01-15T00:07:11.258Z,100.00
2023-01-15T00:09:38.442Z,100.00
2023-01-15T00:12:05.666Z,100.00
2023-01-15T00:14:32.893Z,100.00
2023-01-15T00:16:59.800Z,100.00
2023-01-15T00:19:27.037Z,100.00
2023-01-15T00:21:54.363Z,100.00
2023-01-15T00:24:40.583Z,100.00
2023-01-15T00:27:29.293Z,100.00
2023-01-15T00:29:56.373Z,100.00
2023-01-15T00:32:23.307Z,100.00
2023-01-15T00:34:50.464Z,100.00
2023-01-15T00:37:17.434Z,100.00
2023-01-15T00:39:44.716Z,100.00
2023-01-15T00:42:12.486Z,100.00
2023-01-15T00:44:39.726Z,100.00
2023-01-15T00:47:09.024Z,100.00
2023-01-15T00:49:36.257Z,100.00
2023-01-15T00:52:03.182Z,100.00
2023-01-15T00:54:30.465Z,100.00
2023-01-15T00:56:57.416Z,100.00
2023-01-15T00:59:24.787Z,100.00
2023-01-15T01:01:52.030Z,100.00
2023-01-15T01:04:19.521Z,100.00
2023-01-15T01:06:46.451Z,100.00
2023-01-15T01:09:15.054Z,100.00
2023-01-15T01:11:42.236Z,100.00
2023-01-15T01:14:10.807Z,100.00
2023-01-15T01:16:42.181Z,100.00
2023-01-15T01:19:12.902Z,100.00
2023-01-15T01:21:41.659Z,100.00
2023-01-15T01:24:11.615Z,100.00
2023-01-15T01:26:39.252Z,100.00
2023-01-15T01:29:06.581Z,100.00
2023-01-15T01:31:33.686Z,100.00
2023-01-15T01:34:00.924Z,100.00
2023-01-15T01:36:31.561Z,100.00
2023-01-15T01:38:59.482Z,100.00
2023-01-15T01:41:27.155Z,100.00
2023-01-15T01:44:00.210Z,100.00
2023-01-15T01:46:29.798Z,100.00
2023-01-15T01:49:09.597Z,100.00
2023-01-15T01:51:43.423Z,100.00
2023-01-15T01:54:14.222Z,100.00
2023-01-15T01:56:42.007Z,100.00
2023-01-15T01:59:09.780Z,100.00
2023-01-15T02:01:36.746Z,100.00
2023-01-15T02:04:07.887Z,100.00
2023-01-15T02:06:35.997Z,100.00
2023-01-15T02:09:04.249Z,100.00
2023-01-15T02:11:33.095Z,100.00
2023-01-15T02:14:09.277Z,100.00
2023-01-15T02:16:53.962Z,100.00
2023-01-15T02:19:50.855Z,100.00
2023-01-15T02:22:42.740Z,100.00
2023-01-15T02:25:18.760Z,100.00
2023-01-15T02:27:55.632Z,100.00
2023-01-15T02:30:39.856Z,100.00
2023-01-15T02:33:26.745Z,100.00
2023-01-15T02:36:01.084Z,100.00
2023-01-15T02:38:35.975Z,100.00
2023-01-15T02:41:05.618Z,100.00
2023-01-15T02:43:38.785Z,100.00
2023-01-15T02:46:07.955Z,100.00
2023-01-15T02:48:38.879Z,100.00
2023-01-15T02:51:12.575Z,100.00
2023-01-15T02:53:41.828Z,100.00
2023-01-15T02:56:19.205Z,100.00
2023-01-15T02:58:48.263Z,100.00
2023-01-15T03:01:20.423Z,100.00
2023-01-15T03:03:55.188Z,100.00
2023-01-15T03:06:34.028Z,100.00
2023-01-15T03:11:38.165Z,100.00
2023-01-15T03:14:33.115Z,100.00
2023-01-15T03:17:10.295Z,100.00
2023-01-15T03:19:39.887Z,100.00
2023-01-15T03:22:16.168Z,100.00
2023-01-15T03:24:43.142Z,100.00
2023-01-15T03:27:11.247Z,100.00
2023-01-15T03:29:48.111Z,100.00
2023-01-15T03:32:17.800Z,100.00
2023-01-15T03:34:49.104Z,100.00
2023-01-15T03:37:19.670Z,100.00
2023-01-15T03:39:47.732Z,100.00
2023-01-15T03:42:29.953Z,99.93
2023-01-15T03:45:02.619Z,99.70
2023-01-15T03:47:34.414Z,100.00
2023-01-15T03:50:19.875Z,99.65
2023-01-15T03:53:08.747Z,99.87
2023-01-15T03:55:47.457Z,100.00
2023-01-15T03:58:18.846Z,100.00
2023-01-15T04:00:52.557Z,100.00
2023-01-15T04:03:22.980Z,100.00
2023-01-15T04:05:52.706Z,100.00
2023-01-15T04:08:20.851Z,99.81
2023-01-15T04:10:55.828Z,99.58
2023-01-15T04:13:23.429Z,99.62
2023-01-15T04:15:51.214Z,99.45
2023-01-15T04:18:19.345Z,99.13
2023-01-15T04:20:47.010Z,98.88
2023-01-15T04:23:14.578Z,98.77
2023-01-15T04:25:41.784Z,98.87
2023-01-15T04:28:09.729Z,98.86
2023-01-15T04:30:37.057Z,98.94
2023-01-15T04:33:04.663Z,98.69
2023-01-15T04:35:31.866Z,98.70
2023-01-15T04:37:59.779Z,98.97
2023-01-15T04:40:46.856Z,98.32
2023-01-15T04:43:32.893Z,98.46
2023-01-15T04:46:00.363Z,99.22
2023-01-15T04:48:27.663Z,98.86
2023-01-15T04:50:55.224Z,98.18
2023-01-15T04:53:22.445Z,98.06
2023-01-15T04:55:49.331Z,97.76
2023-01-15T04:58:16.552Z,98.06
2023-01-15T05:00:43.518Z,98.44
2023-01-15T05:03:10.929Z,98.49
2023-01-15T05:05:37.840Z,98.45
2023-01-15T05:08:05.133Z,98.52
2023-01-15T05:10:32.119Z,98.32
2023-01-15T05:12:59.340Z,98.21
2023-01-15T05:15:26.290Z,98.39
2023-01-15T05:17:53.423Z,98.47
2023-01-15T05:20:20.423Z,97.90
2023-01-15T05:22:47.554Z,97.76
2023-01-15T05:25:14.456Z,98.00
2023-01-15T05:27:42.771Z,98.35
2023-01-15T05:30:10.429Z,98.46
2023-01-15T05:32:37.677Z,97.87
2023-01-15T05:35:04.811Z,97.78
2023-01-15T05:37:31.973Z,97.25
2023-01-15T05:39:58.887Z,97.03
2023-01-15T05:42:26.268Z,96.84
2023-01-15T05:44:53.184Z,97.26
2023-01-15T05:47:20.388Z,97.37
2023-01-15T05:49:48.622Z,97.58
2023-01-15T05:52:16.240Z,97.48
2023-01-15T05:54:43.130Z,97.81
2023-01-15T05:57:13.118Z,97.90
2023-01-15T05:59:40.484Z,98.29
2023-01-15T06:02:07.786Z,97.52
2023-01-15T06:04:34.734Z,97.64
2023-01-15T06:07:02.051Z,97.04
2023-01-15T06:09:29.811Z,96.53
2023-01-15T06:11:57.803Z,96.63
2023-01-15T06:14:25.392Z,96.64
2023-01-15T06:16:52.743Z,97.16
2023-01-15T06:19:20.020Z,97.35
2023-01-15T06:21:47.207Z,96.43
2023-01-15T06:24:16.640Z,96.63
2023-01-15T06:26:43.994Z,96.26
2023-01-15T06:29:10.898Z,95.85
2023-01-15T06:31:38.215Z,95.65
2023-01-15T06:34:05.245Z,95.82
2023-01-15T06:36:32.517Z,95.22
2023-01-15T06:38:59.404Z,95.16
2023-01-15T06:41:45.446Z,94.84
2023-01-15T06:44:34.432Z,94.54
2023-01-15T06:47:23.039Z,94.47
2023-01-15T06:49:56.005Z,93.75
2023-01-15T06:52:25.148Z,93.40
2023-01-15T06:54:52.676Z,93.25
2023-01-15T06:57:19.971Z,92.39
2023-01-15T06:59:48.118Z,92.27
2023-01-15T07:02:15.446Z,91.54
2023-01-15T07:04:42.476Z,89.10
2023-01-15T07:07:09.733Z,88.41
2023-01-15T07:09:37.336Z,87.08
2023-01-15T07:12:04.562Z,87.07
2023-01-15T07:14:32.242Z,86.12
2023-01-15T07:16:59.450Z,86.92
2023-01-15T07:19:27.429Z,86.41
2023-01-15T07:21:54.844Z,84.43
2023-01-15T07:24:22.501Z,84.26
2023-01-15T07:26:49.869Z,82.38
2023-01-15T07:29:16.846Z,81.35
2023-01-15T07:31:44.455Z,80.61
2023-01-15T07:34:11.414Z,79.43
2023-01-15T07:36:38.997Z,77.02
2023-01-15T07:39:07.422Z,78.27
2023-01-15T07:41:53.136Z,76.18
2023-01-15T07:44:38.886Z,78.10
2023-01-15T07:47:37.817Z,80.46
2023-01-15T07:50:08.048Z,80.36
2023-01-15T07:52:35.517Z,81.58
2023-01-15T07:55:03.960Z,80.57
2023-01-15T07:57:31.452Z,82.30
2023-01-15T07:59:58.324Z,81.68
2023-01-15T08:02:25.508Z,81.55
2023-01-15T08:04:52.462Z,80.54
2023-01-15T08:07:19.626Z,80.24
2023-01-15T08:09:46.581Z,80.80
2023-01-15T08:12:32.293Z,80.43
2023-01-15T08:15:14.397Z,80.58
2023-01-15T08:17:44.254Z,82.58
2023-01-15T08:20:19.974Z,82.40
2023-01-15T08:22:47.761Z,83.40
2023-01-15T08:25:19.095Z,83.05
2023-01-15T08:27:47.077Z,82.73
2023-01-15T08:30:17.552Z,82.83
2023-01-15T08:32:45.386Z,82.86
2023-01-15T08:35:13.265Z,82.60
2023-01-15T08:37:41.772Z,82.45
2023-01-15T08:40:10.963Z,82.16
2023-01-15T08:42:38.595Z,82.62
2023-01-15T08:45:06.103Z,81.99
2023-01-15T08:47:33.445Z,82.27
2023-01-15T08:50:00.440Z,81.94
2023-01-15T08:52:27.734Z,82.16
2023-01-15T08:54:54.694Z,82.13
2023-01-15T08:57:21.921Z,82.81
2023-01-15T08:59:48.830Z,83.46
2023-01-15T09:02:16.371Z,82.49
2023-01-15T09:04:43.394Z,82.58
2023-01-15T09:07:11.210Z,82.05
2023-01-15T09:09:38.171Z,82.32
2023-01-15T09:12:05.489Z,83.31
2023-01-15T09:14:58.928Z,82.52
2023-01-15T09:17:19.541Z,82.35
2023-01-15T09:19:46.635Z,81.96
2023-01-15T09:22:13.965Z,83.29
2023-01-15T09:24:40.880Z,81.79
2023-01-15T09:27:12.962Z,82.12
2023-01-15T09:29:40.237Z,81.61
2023-01-15T09:32:08.362Z,81.27
2023-01-15T09:34:35.220Z,81.89
2023-01-15T09:37:02.462Z,81.24
2023-01-15T09:39:29.370Z,82.47
2023-01-15T09:42:29.002Z,81.14
2023-01-15T09:44:58.633Z,80.71
2023-01-15T09:47:38.723Z,82.11
2023-01-15T09:50:14.685Z,82.40
2023-01-15T09:52:50.696Z,81.21
2023-01-15T09:55:21.369Z,81.85
2023-01-15T09:57:55.562Z,81.52
2023-01-15T10:00:26.488Z,81.06
2023-01-15T10:02:59.116Z,81.20
2023-01-15T10:05:33.896Z,80.74
2023-01-15T10:08:07.048Z,81.84
2023-01-15T10:10:45.894Z,80.87
2023-01-15T10:13:33.202Z,79.83
2023-01-15T10:16:00.653Z,79.98
2023-01-15T10:18:29.058Z,80.66
2023-01-15T10:21:03.338Z,80.82
2023-01-15T10:23:52.968Z,81.34
2023-01-15T10:26:33.395Z,81.95
2023-01-15T10:29:24.915Z,82.36
2023-01-15T10:32:10.119Z,81.42
2023-01-15T10:34:50.212Z,82.40
2023-01-15T10:37:35.149Z,81.74
2023-01-15T10:40:30.064Z,81.90
2023-01-15T10:43:15.639Z,81.94
2023-01-15T10:45:54.299Z,81.92
2023-01-15T10:48:42.833Z,82.75
2023-01-15T10:51:20.800Z,80.92
2023-01-15T10:53:57.183Z,81.83
2023-01-15T10:56:41.187Z,82.05
2023-01-15T10:59:18.240Z,81.94
2023-01-15T11:01:46.461Z,81.98
2023-01-15T11:04:14.034Z,80.82
2023-01-15T11:06:42.206Z,81.41
2023-01-15T11:09:34.806Z,82.21
2023-01-15T11:13:00.855Z,82.37
2023-01-15T11:15:46.856Z,80.61
2023-01-15T11:18:39.826Z,81.08
2023-01-15T11:21:13.476Z,82.09
2023-01-15T11:23:41.024Z,81.43
2023-01-15T11:26:08.165Z,80.99
2023-01-15T11:28:41.518Z,81.30
2023-01-15T11:31:10.040Z,81.37
2023-01-15T11:33:38.391Z,81.58
2023-01-15T11:36:08.431Z,81.04
2023-01-15T11:38:46.762Z,80.62
2023-01-15T11:41:55.446Z,82.28
2023-01-15T11:44:42.161Z,82.24
2023-01-15T11:47:32.092Z,82.32
2023-01-15T11:50:17.871Z,82.50
2023-01-15T11:52:55.811Z,83.55
2023-01-15T11:55:26.535Z,82.94
2023-01-15T11:57:55.120Z,83.39
2023-01-15T12:00:32.736Z,83.33
2023-01-15T12:03:05.248Z,82.81
2023-01-15T12:05:35.331Z,82.76
2023-01-15T12:08:22.424Z,83.00
2023-01-15T12:11:17.494Z,82.45
2023-01-15T12:13:58.433Z,81.77
2023-01-15T12:17:01.064Z,81.41
2023-01-15T12:19:28.176Z,81.78
2023-01-15T12:21:55.498Z,81.39
2023-01-15T12:24:52.597Z,81.92
2023-01-15T12:27:52.524Z,82.77
2023-01-15T12:30:42.187Z,82.62
2023-01-15T12:33:53.871Z,82.00
2023-01-15T12:36:44.779Z,83.86
2023-01-15T12:39:35.263Z,83.61
2023-01-15T12:42:26.139Z,84.36
2023-01-15T12:45:06.081Z,84.35
2023-01-15T12:47:52.362Z,83.89
2023-01-15T12:50:50.699Z,84.98
2023-01-15T12:53:21.113Z,85.24
2023-01-15T12:55:49.042Z,85.19
2023-01-15T12:58:47.876Z,85.99
2023-01-15T13:01:32.138Z,84.76
2023-01-15T13:04:12.727Z,84.95
2023-01-15T13:06:44.962Z,85.40
2023-01-15T13:09:18.888Z,85.07
2023-01-15T13:11:46.151Z,85.17
2023-01-15T13:14:17.484Z,85.27
2023-01-15T13:17:08.627Z,85.35
2023-01-15T13:19:39.408Z,84.99
2023-01-15T13:22:14.917Z,85.83
2023-01-15T13:24:57.200Z,84.93
2023-01-15T13:27:43.517Z,85.66
2023-01-15T13:30:32.058Z,85.86
2023-01-15T13:33:30.256Z,85.44
2023-01-15T13:36:06.433Z,85.77
2023-01-15T13:38:43.291Z,85.87
2023-01-15T13:41:10.742Z,86.82
2023-01-15T13:43:43.849Z,87.88
2023-01-15T13:46:19.430Z,87.39
2023-01-15T13:48:52.510Z,87.90
2023-01-15T13:51:33.171Z,88.43
2023-01-15T13:54:01.628Z,89.26
2023-01-15T13:56:36.182Z,89.29
2023-01-15T13:59:05.559Z,89.55
2023-01-15T14:01:37.366Z,89.48
2023-01-15T14:04:13.643Z,89.61
2023-01-15T14:06:44.710Z,89.88
2023-01-15T14:09:29.628Z,89.59
2023-01-15T14:12:05.204Z,89.35
2023-01-15T14:14:38.252Z,89.45
2023-01-15T14:17:35.529Z,90.16
2023-01-15T14:20:21.514Z,89.83
2023-01-15T14:22:58.031Z,90.10
2023-01-15T14:25:28.236Z,90.49
2023-01-15T14:27:58.086Z,91.10
2023-01-15T14:31:02.527Z,91.71
2023-01-15T14:34:04.953Z,91.85
2023-01-15T14:37:00.197Z,92.42
2023-01-15T14:39:49.521Z,92.84
2023-01-15T14:42:41.527Z,92.71
2023-01-15T14:45:11.442Z,93.51
2023-01-15T14:47:49.610Z,94.07
2023-01-15T14:50:38.567Z,93.95
2023-01-15T14:53:05.796Z,93.81
2023-01-15T14:55:33.523Z,93.28
2023-01-15T14:58:05.702Z,94.16
2023-01-15T15:00:40.051Z,94.35
2023-01-15T15:03:18.087Z,94.60
2023-01-15T15:05:46.688Z,94.92
2023-01-15T15:08:16.282Z,94.77
2023-01-15T15:10:45.123Z,94.61
2023-01-15T15:13:44.510Z,94.71
2023-01-15T15:16:19.750Z,95.34
2023-01-15T15:19:01.672Z,95.31
2023-01-15T15:21:37.474Z,95.48
2023-01-15T15:24:21.377Z,95.45
2023-01-15T15:26:48.363Z,95.17
2023-01-15T15:29:18.722Z,95.58
2023-01-15T15:31:58.311Z,95.40
2023-01-15T15:34:32.991Z,95.02
2023-01-15T15:37:05.403Z,95.12
2023-01-15T15:53:36.502Z,91.87
2023-01-15T15:56:03.955Z,92.56
2023-01-15T15:58:36.132Z,93.00
2023-01-15T16:01:03.685Z,93.55
2023-01-15T16:03:33.283Z,94.55
2023-01-15T16:06:06.285Z,94.83
2023-01-15T16:08:35.258Z,95.46
2023-01-15T16:11:04.474Z,95.80
2023-01-15T16:13:36.650Z,96.42
2023-01-15T16:16:05.757Z,97.81
2023-01-15T16:18:36.474Z,98.62
2023-01-15T16:21:04.131Z,100.00
2023-01-15T16:23:31.362Z,100.00
2023-01-15T16:26:08.344Z,100.00
2023-01-15T16:28:43.741Z,100.00
2023-01-15T16:31:12.449Z,100.00
2023-01-15T16:33:39.696Z,100.00
2023-01-15T16:36:08.082Z,100.00
2023-01-15T16:38:39.089Z,100.00
2023-01-15T16:41:07.025Z,100.00
2023-01-15T16:43:51.621Z,100.00
2023-01-15T16:46:20.465Z,100.00
2023-01-15T16:48:48.676Z,100.00
2023-01-15T16:51:33.354Z,100.00
2023-01-15T16:54:05.994Z,100.00
2023-01-15T16:56:36.215Z,100.00
2023-01-15T16:59:15.834Z,100.00
2023-01-15T17:01:48.795Z,100.00
2023-01-15T17:04:27.755Z,100.00
2023-01-15T17:06:59.431Z,100.00
2023-01-15T17:09:28.306Z,100.00
2023-01-15T17:11:56.315Z,100.00
2023-01-15T17:14:29.931Z,100.00
2023-01-15T17:17:15.044Z,100.00
2023-01-15T17:19:41.979Z,100.00
2023-01-15T17:22:20.511Z,100.00
2023-01-15T17:24:52.609Z,100.00
2023-01-15T17:27:20.173Z,100.00
2023-01-15T17:29:47.178Z,100.00
2023-01-15T17:32:18.182Z,100.00
2023-01-15T17:34:45.084Z,100.00
2023-01-15T17:37:12.296Z,100.00
2023-01-15T17:39:39.268Z,100.00
2023-01-15T17:42:18.452Z,100.00
2023-01-15T17:44:46.057Z,100.00
2023-01-15T17:47:13.386Z,100.00
2023-01-15T17:49:40.341Z,100.00
2023-01-15T17:52:14.598Z,100.00
2023-01-15T17:55:00.111Z,100.00
2023-01-15T17:57:45.820Z,100.00
2023-01-15T18:00:32.079Z,100.00
2023-01-15T18:03:18.644Z,100.00
2023-01-15T18:05:47.751Z,100.00
2023-01-15T18:08:15.575Z,100.00
2023-01-15T18:10:42.416Z,100.00
2023-01-15T18:13:09.710Z,100.00
2023-01-15T18:15:36.642Z,100.00
2023-01-15T18:18:03.988Z,100.00
2023-01-15T18:20:31.839Z,100.00
2023-01-15T18:22:59.032Z,100.00
2023-01-15T18:25:26.234Z,100.00
2023-01-15T18:27:53.502Z,100.00
2023-01-15T18:30:20.452Z,100.00
2023-01-15T18:32:47.637Z,100.00
2023-01-15T18:35:15.049Z,100.00
2023-01-15T18:37:42.859Z,100.00
2023-01-15T18:40:11.017Z,100.00
2023-01-15T18:42:58.063Z,100.00
2023-01-15T18:45:43.980Z,100.00
2023-01-15T18:48:11.130Z,100.00
2023-01-15T18:50:38.116Z,100.00
2023-01-15T18:53:05.323Z,100.00
2023-01-15T18:55:32.259Z,100.00
2023-01-15T18:58:00.017Z,100.00
2023-01-15T19:00:27.043Z,100.00
2023-01-15T19:02:54.253Z,100.00
2023-01-15T19:05:21.471Z,100.00
2023-01-15T19:07:48.767Z,100.00
2023-01-15T19:10:17.406Z,100.00
2023-01-15T19:12:45.149Z,100.00
2023-01-15T19:15:38.543Z,100.00
2023-01-15T19:18:24.712Z,100.00
2023-01-15T19:20:51.683Z,100.00
2023-01-15T19:23:20.694Z,100.00
2023-01-15T19:25:51.121Z,100.00
2023-01-15T19:28:20.822Z,100.00
2023-01-15T19:31:08.170Z,100.00
2023-01-15T19:33:35.812Z,100.00
2023-01-15T19:36:04.265Z,100.00
2023-01-15T19:38:33.147Z,100.00
2023-01-15T19:41:19.912Z,100.00
2023-01-15T19:44:05.563Z,100.00
2023-01-15T19:46:58.561Z,100.00
2023-01-15T19:49:44.829Z,100.00
2023-01-15T19:52:30.415Z,100.00
2023-01-15T19:54:57.676Z,100.00
2023-01-15T19:57:24.910Z,100.00
2023-01-15T19:59:52.445Z,100.00
2023-01-15T20:02:19.353Z,100.00
2023-01-15T20:04:47.320Z,100.00
2023-01-15T20:07:14.292Z,100.00
2023-01-15T20:09:42.584Z,100.00
2023-01-15T20:12:31.347Z,100.00
2023-01-15T20:14:59.511Z,100.00
2023-01-15T20:17:29.394Z,100.00
2023-01-15T20:19:57.873Z,100.00
2023-01-15T20:22:26.167Z,100.00
2023-01-15T20:24:53.369Z,100.00
2023-01-15T20:27:20.384Z,100.00
2023-01-15T20:29:54.366Z,100.00
2023-01-15T20:32:21.340Z,100.00
2023-01-15T20:34:48.582Z,100.00
2023-01-15T20:37:16.180Z,100.00
2023-01-15T20:39:43.381Z,100.00
2023-01-15T20:42:30.192Z,100.00
2023-01-15T20:44:57.524Z,100.00
2023-01-15T20:47:47.474Z,100.00
2023-01-15T20:50:17.331Z,100.00
2023-01-15T20:52:49.665Z,100.00
2023-01-15T20:55:17.701Z,100.00
2023-01-15T20:57:44.696Z,100.00
2023-01-15T21:00:17.155Z,100.00
2023-01-15T21:02:44.681Z,100.00
2023-01-15T21:05:12.319Z,100.00
2023-01-15T21:07:39.381Z,100.00
2023-01-15T21:10:09.959Z,100.00
2023-01-15T21:12:36.829Z,100.00
2023-01-15T21:15:04.438Z,100.00
2023-01-15T21:17:31.431Z,100.00
2023-01-15T21:19:58.639Z,100.00
2023-01-15T21:22:25.635Z,100.00
2023-01-15T21:24:52.808Z,100.00
2023-01-15T21:27:19.764Z,100.00
2023-01-15T21:29:49.880Z,100.00
2023-01-15T21:32:17.039Z,100.00
2023-01-15T21:34:44.356Z,100.00
2023-01-15T21:37:11.218Z,100.00
2023-01-15T21:39:38.814Z,100.00
2023-01-15T21:42:24.427Z,100.00
2023-01-15T21:44:51.641Z,100.00
2023-01-15T21:47:19.699Z,100.00
2023-01-15T21:49:47.001Z,100.00
2023-01-15T21:52:17.784Z,100.00
2023-01-15T21:54:45.972Z,100.00
2023-01-15T21:57:14.053Z,100.00
2023-01-15T21:59:41.355Z,100.00
2023-01-15T22:02:15.241Z,100.00
2023-01-15T22:04:43.750Z,100.00
2023-01-15T22:07:11.587Z,100.00
2023-01-15T22:09:38.828Z,100.00
2023-01-15T22:12:06.002Z,100.00
2023-01-15T22:14:33.848Z,100.00
2023-01-15T22:17:03.655Z,100.00
2023-01-15T22:19:32.326Z,100.00
2023-01-15T22:22:05.132Z,100.00
2023-01-15T22:24:33.763Z,100.00
2023-01-15T22:27:01.958Z,100.00
2023-01-15T22:29:34.882Z,100.00
2023-01-15T22:32:02.148Z,100.00
2023-01-15T22:34:29.462Z,100.00
2023-01-15T22:36:57.472Z,100.00
2023-01-15T22:39:26.063Z,100.00
2023-01-15T22:42:11.900Z,100.00
2023-01-15T22:44:39.293Z,100.00
2023-01-15T22:47:06.675Z,100.00
2023-01-15T22:49:33.932Z,100.00
2023-01-15T22:52:00.841Z,100.00
2023-01-15T22:54:28.133Z,100.00
2023-01-15T22:56:55.216Z,100.00
2023-01-15T22:59:22.460Z,100.00
2023-01-15T23:01:49.515Z,100.00
2023-01-15T23:04:22.268Z,100.00
2023-01-15T23:06:51.613Z,100.00
2023-01-15T23:09:20.903Z,100.00
2023-01-15T23:11:48.098Z,100.00
2023-01-15T23:14:15.860Z,100.00
2023-01-15T23:16:43.694Z,100.00
2023-01-15T23:19:12.318Z,100.00
2023-01-15T23:21:40.106Z,100.00
2023-01-15T23:24:07.656Z,100.00
2023-01-15T23:26:35.038Z,100.00
2023-01-15T23:29:03.124Z,100.00
2023-01-15T23:31:30.286Z,100.00
2023-01-15T23:33:57.556Z,100.00
2023-01-15T23:36:24.680Z,100.00
2023-01-15T23:38:51.970Z,100.00
2023-01-15T23:41:44.812Z,100.00
2023-01-15T23:44:36.032Z,100.00
2023-01-15T23:47:03.070Z,100.00
2023-01-15T23:49:30.390Z,100.00
2023-01-15T23:51:57.840Z,100.00
2023-01-15T23:54:30.187Z,100.00
2023-01-15T23:56:59.088Z,100.00
2023-01-15T23:59:26.241Z,100.00
